Time;durP1;ratioP1;P1;durP2;ratioP2;P2;SDS_P1;SDS_P2;PMS_P1;PMS_P2;Temp;Humidity;BMP_temperature;BMP_pressure;BME280_temperature;BME280_humidity;BME280_pressure;Samples;Min_cycle;Max_cycle;Signal;HPM_P1;HPM_P2
2023/04/04 00:00:00;;;;;;;2.7;2.6;;;;;;;2.8;100.0;102750;;;;
2023/04/04 00:01:00;;;;;;;2.7;2.6;;;;;;;2.8;100.0;102750;;;;
2023/04/04 00:02:01;;;;;;;2.7;2.6;;;;;;;2.8;100.0;102750;;;;
2023/04/04 00:03:00;;;;;;;2.7;2.6;;;;;;;2.8;100.0;102750;;;;
2023/04/04 00:04:00;;;;;;;2.7;2.6;;;;;;;2.7;100.0;102750;;;;
2023/04/04 00:05:00;;;;;;;2.7;2.6;;;;;;;2.7;100.0;102750;;;;
2023/04/04 00:06:00;;;;;;;2.7;2.6;;;;;;;2.5;100.0;102750;;;;
2023/04/04 00:07:00;;;;;;;2.7;2.6;;;;;;;2.5;100.0;102750;;;;
2023/04/04 00:08:01;;;;;;;2.7;2.6;;;;;;;2.4;100.0;102760;;;;
2023/04/04 00:09:00;;;;;;;2.7;2.6;;;;;;;2.4;100.0;102760;;;;
2023/04/04 00:10:00;;;;;;;2.7;2.6;;;;;;;2.5;100.0;102760;;;;
2023/04/04 00:11:00;;;;;;;2.7;2.6;;;;;;;2.5;100.0;102760;;;;
2023/04/04 00:12:01;;;;;;;2.7;2.6;;;;;;;2.5;100.0;102760;;;;
2023/04/04 00:13:01;;;;;;;2.8;2.7;;;;;;;2.5;100.0;102760;;;;
2023/04/04 00:14:01;;;;;;;2.8;2.7;;;;;;;2.7;100.0;102760;;;;
2023/04/04 00:15:01;;;;;;;2.8;2.7;;;;;;;2.7;100.0;102760;;;;
2023/04/04 00:16:00;;;;;;;2.8;2.7;;;;;;;2.7;100.0;102760;;;;
2023/04/04 00:17:00;;;;;;;2.8;2.7;;;;;;;2.7;100.0;102760;;;;
2023/04/04 00:18:02;;;;;;;2.8;2.7;;;;;;;2.7;100.0;102760;;;;
2023/04/04 00:19:00;;;;;;;2.8;2.7;;;;;;;2.7;100.0;102760;;;;
2023/04/04 00:20:00;;;;;;;2.8;2.7;;;;;;;2.7;100.0;102760;;;;
2023/04/04 00:21:00;;;;;;;2.8;2.7;;;;;;;2.7;100.0;102760;;;;
2023/04/04 00:22:00;;;;;;;2.8;2.7;;;;;;;2.7;100.0;102760;;;;
2023/04/04 00:23:00;;;;;;;2.8;2.7;;;;;;;2.7;100.0;102760;;;;
2023/04/04 00:24:00;;;;;;;2.8;2.7;;;;;;;2.7;100.0;102760;;;;
2023/04/04 00:25:00;;;;;;;2.8;2.7;;;;;;;2.7;100.0;102760;;;;
2023/04/04 00:26:00;;;;;;;2.8;2.7;;;;;;;2.7;100.0;102760;;;;
2023/04/04 00:27:01;;;;;;;2.8;2.7;;;;;;;2.7;100.0;102760;;;;
2023/04/04 00:28:02;;;;;;;2.8;2.7;;;;;;;2.4;100.0;102760;;;;
2023/04/04 00:29:00;;;;;;;2.8;2.7;;;;;;;2.4;100.0;102760;;;;
2023/04/04 00:30:00;;;;;;;2.8;2.7;;;;;;;2.4;100.0;102750;;;;
2023/04/04 00:31:01;;;;;;;2.8;2.7;;;;;;;2.4;100.0;102750;;;;
2023/04/04 00:32:02;;;;;;;2.8;2.7;;;;;;;2.5;100.0;102760;;;;
2023/04/04 00:33:00;;;;;;;2.7;2.6;;;;;;;2.5;100.0;102760;;;;
2023/04/04 00:34:00;;;;;;;2.7;2.6;;;;;;;2.5;100.0;102750;;;;
2023/04/04 00:35:01;;;;;;;2.7;2.6;;;;;;;2.5;100.0;102750;;;;
2023/04/04 00:36:01;;;;;;;2.7;2.6;;;;;;;2.5;100.0;102760;;;;
2023/04/04 00:37:00;;;;;;;2.7;2.6;;;;;;;2.5;100.0;102760;;;;
2023/04/04 00:38:00;;;;;;;2.7;2.6;;;;;;;2.5;100.0;102760;;;;
2023/04/04 00:39:00;;;;;;;2.7;2.6;;;;;;;2.5;100.0;102760;;;;
2023/04/04 00:40:02;;;;;;;2.7;2.6;;;;;;;2.4;100.0;102760;;;;
2023/04/04 00:41:00;;;;;;;2.7;2.6;;;;;;;2.4;100.0;102760;;;;
2023/04/04 00:42:00;;;;;;;2.7;2.6;;;;;;;2.3;100.0;102750;;;;
2023/04/04 00:43:01;;;;;;;2.7;2.6;;;;;;;2.3;100.0;102750;;;;
2023/04/04 00:44:00;;;;;;;2.7;2.6;;;;;;;2.2;100.0;102750;;;;
2023/04/04 00:45:00;;;;;;;2.7;2.6;;;;;;;2.2;100.0;102750;;;;
2023/04/04 00:46:00;;;;;;;2.7;2.6;;;;;;;2.2;100.0;102750;;;;
2023/04/04 00:47:01;;;;;;;2.7;2.6;;;;;;;2.2;100.0;102750;;;;
2023/04/04 00:48:02;;;;;;;2.7;2.6;;;;;;;2.4;100.0;102750;;;;
2023/04/04 00:49:00;;;;;;;2.7;2.6;;;;;;;2.4;100.0;102750;;;;
2023/04/04 00:50:01;;;;;;;2.7;2.6;;;;;;;2.3;100.0;102750;;;;
2023/04/04 00:51:01;;;;;;;2.7;2.6;;;;;;;2.3;100.0;102750;;;;
2023/04/04 00:52:00;;;;;;;2.7;2.6;;;;;;;2.3;100.0;102750;;;;
2023/04/04 00:53:00;;;;;;;2.9;2.8;;;;;;;2.3;100.0;102750;;;;
2023/04/04 00:54:01;;;;;;;2.9;2.8;;;;;;;2.2;100.0;102750;;;;
2023/04/04 00:55:00;;;;;;;2.9;2.8;;;;;;;2.2;100.0;102750;;;;
2023/04/04 00:56:00;;;;;;;2.9;2.8;;;;;;;2.4;100.0;102750;;;;
2023/04/04 00:57:01;;;;;;;2.9;2.8;;;;;;;2.4;100.0;102750;;;;
2023/04/04 00:58:00;;;;;;;2.9;2.8;;;;;;;2.5;100.0;102750;;;;
2023/04/04 00:59:00;;;;;;;2.9;2.8;;;;;;;2.5;100.0;102750;;;;
2023/04/04 01:00:03;;;;;;;2.9;2.8;;;;;;;2.5;100.0;102750;;;;
2023/04/04 01:01:01;;;;;;;2.9;2.8;;;;;;;2.5;100.0;102750;;;;
2023/04/04 01:02:01;;;;;;;2.9;2.8;;;;;;;2.5;100.0;102740;;;;
2023/04/04 01:03:01;;;;;;;2.9;2.8;;;;;;;2.5;100.0;102740;;;;
2023/04/04 01:04:02;;;;;;;2.9;2.8;;;;;;;2.5;100.0;102740;;;;
2023/04/04 01:05:01;;;;;;;2.9;2.8;;;;;;;2.5;100.0;102740;;;;
2023/04/04 01:06:01;;;;;;;2.9;2.8;;;;;;;2.5;100.0;102740;;;;
2023/04/04 01:07:01;;;;;;;2.9;2.8;;;;;;;2.5;100.0;102740;;;;
2023/04/04 01:08:01;;;;;;;2.9;2.8;;;;;;;2.6;100.0;102750;;;;
2023/04/04 01:09:01;;;;;;;2.9;2.8;;;;;;;2.6;100.0;102750;;;;
2023/04/04 01:10:02;;;;;;;2.9;2.8;;;;;;;2.6;100.0;102740;;;;
2023/04/04 01:11:00;;;;;;;2.9;2.8;;;;;;;2.6;100.0;102740;;;;
2023/04/04 01:12:01;;;;;;;2.9;2.8;;;;;;;2.5;100.0;102740;;;;
2023/04/04 01:13:01;;;;;;;2.8;2.7;;;;;;;2.5;100.0;102740;;;;
2023/04/04 01:14:00;;;;;;;2.8;2.7;;;;;;;2.5;100.0;102740;;;;
2023/04/04 01:15:00;;;;;;;2.8;2.7;;;;;;;2.5;100.0;102740;;;;
2023/04/04 01:16:00;;;;;;;2.8;2.7;;;;;;;2.5;100.0;102730;;;;
2023/04/04 01:17:02;;;;;;;2.8;2.7;;;;;;;2.5;100.0;102730;;;;
2023/04/04 01:18:01;;;;;;;2.8;2.7;;;;;;;2.5;100.0;102730;;;;
2023/04/04 01:19:01;;;;;;;2.8;2.7;;;;;;;2.5;100.0;102730;;;;
2023/04/04 01:20:04;;;;;;;2.8;2.7;;;;;;;2.4;100.0;102730;;;;
2023/04/04 01:21:02;;;;;;;2.8;2.7;;;;;;;2.4;100.0;102730;;;;
2023/04/04 01:22:01;;;;;;;2.8;2.7;;;;;;;2.3;100.0;102730;;;;
2023/04/04 01:23:01;;;;;;;2.8;2.7;;;;;;;2.3;100.0;102730;;;;
2023/04/04 01:24:02;;;;;;;2.8;2.7;;;;;;;2.3;100.0;102730;;;;
2023/04/04 01:25:01;;;;;;;2.8;2.7;;;;;;;2.3;100.0;102730;;;;
2023/04/04 01:26:01;;;;;;;2.8;2.7;;;;;;;2.3;100.0;102730;;;;
2023/04/04 01:27:00;;;;;;;2.8;2.7;;;;;;;2.3;100.0;102730;;;;
2023/04/04 01:28:00;;;;;;;2.8;2.7;;;;;;;2.2;100.0;102730;;;;
2023/04/04 01:29:00;;;;;;;2.8;2.7;;;;;;;2.2;100.0;102730;;;;
2023/04/04 01:30:01;;;;;;;2.8;2.7;;;;;;;2.3;100.0;102730;;;;
2023/04/04 01:31:01;;;;;;;2.8;2.7;;;;;;;2.3;100.0;102730;;;;
2023/04/04 01:32:05;;;;;;;2.7;2.6;;;;;;;2.3;100.0;102730;;;;
2023/04/04 01:33:09;;;;;;;2.7;2.6;;;;;;;2.3;100.0;102730;;;;
2023/04/04 01:34:08;;;;;;;2.7;2.6;;;;;;;2.3;100.0;102730;;;;
2023/04/04 01:35:03;;;;;;;2.7;2.6;;;;;;;2.3;100.0;102730;;;;
2023/04/04 01:36:04;;;;;;;2.7;2.6;;;;;;;2.2;100.0;102730;;;;
2023/04/04 01:37:11;;;;;;;2.7;2.6;;;;;;;2.2;100.0;102730;;;;
2023/04/04 01:38:07;;;;;;;2.7;2.6;;;;;;;2.1;100.0;102730;;;;
2023/04/04 01:39:05;;;;;;;2.7;2.6;;;;;;;2.1;100.0;102730;;;;
2023/04/04 01:40:11;;;;;;;2.7;2.6;;;;;;;2.0;100.0;102730;;;;
2023/04/04 01:41:02;;;;;;;2.7;2.6;;;;;;;2.0;100.0;102730;;;;
2023/04/04 01:42:01;;;;;;;2.7;2.6;;;;;;;1.9;100.0;102730;;;;
2023/04/04 01:43:01;;;;;;;2.7;2.6;;;;;;;1.9;100.0;102730;;;;
2023/04/04 01:44:01;;;;;;;2.7;2.6;;;;;;;1.9;100.0;102730;;;;
2023/04/04 01:45:01;;;;;;;2.7;2.6;;;;;;;1.9;100.0;102730;;;;
2023/04/04 01:46:00;;;;;;;2.7;2.6;;;;;;;1.9;100.0;102730;;;;
2023/04/04 01:47:02;;;;;;;2.7;2.6;;;;;;;1.9;100.0;102730;;;;
2023/04/04 01:48:00;;;;;;;2.7;2.6;;;;;;;1.9;100.0;102730;;;;
2023/04/04 01:49:00;;;;;;;2.7;2.6;;;;;;;1.9;100.0;102730;;;;
2023/04/04 01:50:00;;;;;;;2.7;2.6;;;;;;;2.1;100.0;102730;;;;
2023/04/04 01:51:01;;;;;;;2.7;2.6;;;;;;;2.1;100.0;102730;;;;
2023/04/04 01:52:01;;;;;;;2.9;2.8;;;;;;;1.9;100.0;102720;;;;
2023/04/04 01:53:00;;;;;;;2.9;2.8;;;;;;;1.9;100.0;102720;;;;
2023/04/04 01:54:00;;;;;;;2.9;2.8;;;;;;;1.7;100.0;102720;;;;
2023/04/04 01:55:00;;;;;;;2.9;2.8;;;;;;;1.7;100.0;102720;;;;
2023/04/04 01:56:00;;;;;;;2.9;2.8;;;;;;;1.9;100.0;102720;;;;
2023/04/04 01:57:00;;;;;;;2.9;2.8;;;;;;;1.9;100.0;102720;;;;
2023/04/04 01:58:00;;;;;;;2.9;2.8;;;;;;;2.0;100.0;102720;;;;
2023/04/04 01:59:00;;;;;;;2.9;2.8;;;;;;;2.0;100.0;102720;;;;
2023/04/04 02:00:00;;;;;;;2.9;2.8;;;;;;;1.9;100.0;102720;;;;
2023/04/04 02:01:00;;;;;;;2.9;2.8;;;;;;;1.9;100.0;102720;;;;
2023/04/04 02:02:00;;;;;;;2.9;2.8;;;;;;;1.9;100.0;102720;;;;
2023/04/04 02:03:01;;;;;;;2.9;2.8;;;;;;;1.9;100.0;102720;;;;
2023/04/04 02:04:01;;;;;;;2.9;2.8;;;;;;;1.8;100.0;102730;;;;
2023/04/04 02:05:00;;;;;;;2.9;2.8;;;;;;;1.8;100.0;102730;;;;
2023/04/04 02:06:00;;;;;;;2.9;2.8;;;;;;;1.7;100.0;102720;;;;
2023/04/04 02:07:01;;;;;;;2.9;2.8;;;;;;;1.7;100.0;102720;;;;
2023/04/04 02:08:01;;;;;;;2.9;2.8;;;;;;;1.6;100.0;102720;;;;
2023/04/04 02:09:00;;;;;;;2.9;2.8;;;;;;;1.6;100.0;102720;;;;
2023/04/04 02:10:00;;;;;;;2.9;2.8;;;;;;;1.8;100.0;102720;;;;
2023/04/04 02:11:00;;;;;;;2.9;2.8;;;;;;;1.8;100.0;102720;;;;
2023/04/04 02:12:00;;;;;;;2.9;2.8;;;;;;;1.9;100.0;102720;;;;
2023/04/04 02:13:00;;;;;;;2.9;2.8;;;;;;;1.9;100.0;102720;;;;
2023/04/04 02:14:00;;;;;;;2.9;2.8;;;;;;;1.8;100.0;102730;;;;
2023/04/04 02:15:00;;;;;;;2.9;2.8;;;;;;;1.8;100.0;102730;;;;
2023/04/04 02:16:00;;;;;;;2.9;2.8;;;;;;;1.7;100.0;102720;;;;
2023/04/04 02:17:00;;;;;;;2.9;2.8;;;;;;;1.7;100.0;102720;;;;
2023/04/04 02:18:02;;;;;;;2.9;2.8;;;;;;;1.5;100.0;102720;;;;
2023/04/04 02:19:00;;;;;;;2.9;2.8;;;;;;;1.5;100.0;102720;;;;
2023/04/04 02:20:01;;;;;;;2.9;2.8;;;;;;;1.5;100.0;102730;;;;
2023/04/04 02:21:00;;;;;;;2.9;2.8;;;;;;;1.5;100.0;102730;;;;
2023/04/04 02:22:00;;;;;;;2.9;2.8;;;;;;;1.5;100.0;102730;;;;
2023/04/04 02:23:00;;;;;;;2.9;2.8;;;;;;;1.5;100.0;102730;;;;
2023/04/04 02:24:00;;;;;;;2.9;2.8;;;;;;;1.4;100.0;102730;;;;
2023/04/04 02:25:01;;;;;;;2.9;2.8;;;;;;;1.4;100.0;102730;;;;
2023/04/04 02:26:00;;;;;;;2.9;2.8;;;;;;;1.2;100.0;102740;;;;
2023/04/04 02:27:00;;;;;;;2.9;2.8;;;;;;;1.2;100.0;102740;;;;
2023/04/04 02:28:00;;;;;;;2.9;2.8;;;;;;;1.2;100.0;102740;;;;
2023/04/04 02:29:01;;;;;;;2.9;2.8;;;;;;;1.2;100.0;102740;;;;
2023/04/04 02:30:00;;;;;;;2.9;2.8;;;;;;;1.1;100.0;102750;;;;
2023/04/04 02:31:01;;;;;;;2.9;2.8;;;;;;;1.1;100.0;102750;;;;
2023/04/04 02:32:01;;;;;;;3.3;3.2;;;;;;;1.1;100.0;102750;;;;
2023/04/04 02:33:01;;;;;;;3.3;3.2;;;;;;;1.1;100.0;102750;;;;
2023/04/04 02:34:00;;;;;;;3.3;3.2;;;;;;;1.1;100.0;102750;;;;
2023/04/04 02:35:01;;;;;;;3.3;3.2;;;;;;;1.1;100.0;102750;;;;
2023/04/04 02:36:01;;;;;;;3.3;3.2;;;;;;;1.2;100.0;102740;;;;
2023/04/04 02:37:01;;;;;;;3.3;3.2;;;;;;;1.2;100.0;102740;;;;
2023/04/04 02:38:00;;;;;;;3.3;3.2;;;;;;;1.3;100.0;102740;;;;
2023/04/04 02:39:01;;;;;;;3.3;3.2;;;;;;;1.3;100.0;102740;;;;
2023/04/04 02:40:00;;;;;;;3.3;3.2;;;;;;;1.4;100.0;102740;;;;
2023/04/04 02:41:00;;;;;;;3.3;3.2;;;;;;;1.4;100.0;102740;;;;
2023/04/04 02:42:00;;;;;;;3.3;3.2;;;;;;;1.4;100.0;102740;;;;
2023/04/04 02:43:00;;;;;;;3.3;3.2;;;;;;;1.4;100.0;102740;;;;
2023/04/04 02:44:00;;;;;;;3.3;3.2;;;;;;;1.3;100.0;102740;;;;
2023/04/04 02:45:00;;;;;;;3.3;3.2;;;;;;;1.3;100.0;102740;;;;
2023/04/04 02:46:10;;;;;;;3.3;3.2;;;;;;;1.3;100.0;102730;;;;
2023/04/04 02:47:00;;;;;;;3.3;3.2;;;;;;;1.3;100.0;102730;;;;
2023/04/04 02:48:00;;;;;;;3.3;3.2;;;;;;;1.3;100.0;102730;;;;
2023/04/04 02:49:00;;;;;;;3.3;3.2;;;;;;;1.3;100.0;102730;;;;
2023/04/04 02:50:00;;;;;;;3.3;3.2;;;;;;;1.3;100.0;102730;;;;
2023/04/04 02:51:00;;;;;;;3.3;3.2;;;;;;;1.3;100.0;102730;;;;
2023/04/04 02:52:00;;;;;;;3.2;3.1;;;;;;;1.2;100.0;102730;;;;
2023/04/04 02:53:01;;;;;;;3.2;3.1;;;;;;;1.2;100.0;102730;;;;
2023/04/04 02:54:01;;;;;;;3.2;3.1;;;;;;;1.3;100.0;102730;;;;
2023/04/04 02:55:00;;;;;;;3.2;3.1;;;;;;;1.3;100.0;102730;;;;
2023/04/04 02:56:02;;;;;;;3.2;3.1;;;;;;;1.4;100.0;102730;;;;
2023/04/04 02:57:00;;;;;;;3.2;3.1;;;;;;;1.4;100.0;102730;;;;
2023/04/04 02:58:00;;;;;;;3.2;3.1;;;;;;;1.3;100.0;102730;;;;
2023/04/04 02:59:00;;;;;;;3.2;3.1;;;;;;;1.3;100.0;102730;;;;
2023/04/04 03:00:02;;;;;;;3.2;3.1;;;;;;;1.3;100.0;102730;;;;
2023/04/04 03:01:00;;;;;;;3.2;3.1;;;;;;;1.3;100.0;102730;;;;
2023/04/04 03:02:00;;;;;;;3.2;3.1;;;;;;;1.3;100.0;102720;;;;
2023/04/04 03:03:01;;;;;;;3.2;3.1;;;;;;;1.3;100.0;102720;;;;
2023/04/04 03:04:03;;;;;;;3.2;3.1;;;;;;;1.2;100.0;102720;;;;
2023/04/04 03:05:00;;;;;;;3.2;3.1;;;;;;;1.2;100.0;102720;;;;
2023/04/04 03:06:00;;;;;;;3.2;3.1;;;;;;;1.2;100.0;102720;;;;
2023/04/04 03:07:02;;;;;;;3.2;3.1;;;;;;;1.2;100.0;102720;;;;
2023/04/04 03:08:01;;;;;;;3.2;3.1;;;;;;;1.1;100.0;102720;;;;
2023/04/04 03:09:03;;;;;;;3.2;3.1;;;;;;;1.1;100.0;102720;;;;
2023/04/04 03:10:00;;;;;;;3.2;3.1;;;;;;;1.2;100.0;102720;;;;
2023/04/04 03:11:01;;;;;;;3.2;3.1;;;;;;;1.2;100.0;102720;;;;
2023/04/04 03:12:01;;;;;;;3.4;3.3;;;;;;;1.2;100.0;102720;;;;
2023/04/04 03:13:00;;;;;;;3.4;3.3;;;;;;;1.2;100.0;102720;;;;
2023/04/04 03:14:00;;;;;;;3.4;3.3;;;;;;;1.0;100.0;102730;;;;
2023/04/04 03:15:00;;;;;;;3.4;3.3;;;;;;;1.0;100.0;102730;;;;
2023/04/04 03:16:02;;;;;;;3.4;3.3;;;;;;;1.0;100.0;102720;;;;
2023/04/04 03:17:01;;;;;;;3.4;3.3;;;;;;;1.0;100.0;102720;;;;
2023/04/04 03:18:01;;;;;;;3.4;3.3;;;;;;;1.1;100.0;102720;;;;
2023/04/04 03:19:01;;;;;;;3.4;3.3;;;;;;;1.1;100.0;102720;;;;
2023/04/04 03:20:00;;;;;;;3.4;3.3;;;;;;;1.2;100.0;102720;;;;
2023/04/04 03:21:00;;;;;;;3.4;3.3;;;;;;;1.2;100.0;102720;;;;
2023/04/04 03:22:00;;;;;;;3.4;3.3;;;;;;;1.2;100.0;102720;;;;
2023/04/04 03:23:00;;;;;;;3.4;3.3;;;;;;;1.2;100.0;102720;;;;
2023/04/04 03:24:00;;;;;;;3.4;3.3;;;;;;;1.1;100.0;102720;;;;
2023/04/04 03:25:00;;;;;;;3.4;3.3;;;;;;;1.1;100.0;102720;;;;
2023/04/04 03:26:00;;;;;;;3.4;3.3;;;;;;;1.1;100.0;102710;;;;
2023/04/04 03:27:00;;;;;;;3.4;3.3;;;;;;;1.1;100.0;102710;;;;
2023/04/04 03:28:08;;;;;;;3.4;3.3;;;;;;;1.0;100.0;102710;;;;
2023/04/04 03:29:03;;;;;;;3.4;3.3;;;;;;;1.0;100.0;102710;;;;
2023/04/04 03:30:01;;;;;;;3.4;3.3;;;;;;;1.1;100.0;102720;;;;
2023/04/04 03:31:02;;;;;;;3.4;3.3;;;;;;;1.1;100.0;102720;;;;
2023/04/04 03:32:01;;;;;;;3.1;3.0;;;;;;;1.1;100.0;102710;;;;
2023/04/04 03:33:07;;;;;;;3.1;3.0;;;;;;;1.1;100.0;102710;;;;
2023/04/04 03:34:01;;;;;;;3.1;3.0;;;;;;;1.2;100.0;102710;;;;
2023/04/04 03:35:00;;;;;;;3.1;3.0;;;;;;;1.2;100.0;102710;;;;
2023/04/04 03:36:00;;;;;;;3.1;3.0;;;;;;;1.2;100.0;102700;;;;
2023/04/04 03:37:00;;;;;;;3.1;3.0;;;;;;;1.2;100.0;102700;;;;
2023/04/04 03:38:02;;;;;;;3.1;3.0;;;;;;;1.3;100.0;102710;;;;
2023/04/04 03:39:00;;;;;;;3.1;3.0;;;;;;;1.3;100.0;102710;;;;
2023/04/04 03:40:01;;;;;;;3.1;3.0;;;;;;;1.2;100.0;102710;;;;
2023/04/04 03:41:02;;;;;;;3.1;3.0;;;;;;;1.2;100.0;102710;;;;
2023/04/04 03:42:00;;;;;;;3.1;3.0;;;;;;;1.2;100.0;102700;;;;
2023/04/04 03:43:01;;;;;;;3.1;3.0;;;;;;;1.2;100.0;102700;;;;
2023/04/04 03:44:02;;;;;;;3.1;3.0;;;;;;;1.2;100.0;102700;;;;
2023/04/04 03:45:01;;;;;;;3.1;3.0;;;;;;;1.2;100.0;102700;;;;
2023/04/04 03:46:01;;;;;;;3.1;3.0;;;;;;;1.2;100.0;102700;;;;
2023/04/04 03:47:00;;;;;;;3.1;3.0;;;;;;;1.2;100.0;102700;;;;
2023/04/04 03:48:01;;;;;;;3.1;3.0;;;;;;;1.1;100.0;102700;;;;
2023/04/04 03:49:00;;;;;;;3.1;3.0;;;;;;;1.1;100.0;102700;;;;
2023/04/04 03:50:01;;;;;;;3.1;3.0;;;;;;;1.0;100.0;102700;;;;
2023/04/04 03:51:02;;;;;;;3.1;3.0;;;;;;;1.0;100.0;102700;;;;
2023/04/04 03:52:02;;;;;;;3.4;3.3;;;;;;;1.1;100.0;102700;;;;
2023/04/04 03:53:00;;;;;;;3.4;3.3;;;;;;;1.1;100.0;102700;;;;
2023/04/04 03:54:00;;;;;;;3.4;3.3;;;;;;;1.1;100.0;102700;;;;
2023/04/04 03:55:00;;;;;;;3.4;3.3;;;;;;;1.1;100.0;102700;;;;
2023/04/04 03:56:00;;;;;;;3.4;3.3;;;;;;;1.1;100.0;102700;;;;
2023/04/04 03:57:00;;;;;;;3.4;3.3;;;;;;;1.1;100.0;102700;;;;
2023/04/04 03:58:00;;;;;;;3.4;3.3;;;;;;;1.0;100.0;102700;;;;
2023/04/04 03:59:00;;;;;;;3.4;3.3;;;;;;;1.0;100.0;102700;;;;
2023/04/04 04:00:01;;;;;;;3.4;3.3;;;;;;;0.8;100.0;102710;;;;
2023/04/04 04:01:00;;;;;;;3.4;3.3;;;;;;;0.8;100.0;102710;;;;
2023/04/04 04:02:00;;;;;;;3.4;3.3;;;;;;;0.8;100.0;102700;;;;
2023/04/04 04:03:00;;;;;;;3.4;3.3;;;;;;;0.8;100.0;102700;;;;
2023/04/04 04:04:01;;;;;;;3.4;3.3;;;;;;;0.8;100.0;102700;;;;
2023/04/04 04:05:00;;;;;;;3.4;3.3;;;;;;;0.8;100.0;102700;;;;
2023/04/04 04:06:00;;;;;;;3.4;3.3;;;;;;;0.9;100.0;102700;;;;
2023/04/04 04:07:01;;;;;;;3.4;3.3;;;;;;;0.9;100.0;102700;;;;
2023/04/04 04:08:01;;;;;;;3.4;3.3;;;;;;;0.9;100.0;102700;;;;
2023/04/04 04:09:00;;;;;;;3.4;3.3;;;;;;;0.9;100.0;102700;;;;
2023/04/04 04:10:00;;;;;;;3.4;3.3;;;;;;;0.8;100.0;102700;;;;
2023/04/04 04:11:04;;;;;;;3.4;3.3;;;;;;;0.8;100.0;102700;;;;
2023/04/04 04:12:00;;;;;;;3.4;3.3;;;;;;;0.9;100.0;102700;;;;
2023/04/04 04:13:01;;;;;;;3.4;3.3;;;;;;;0.9;100.0;102700;;;;
2023/04/04 04:14:00;;;;;;;3.4;3.3;;;;;;;0.9;100.0;102700;;;;
2023/04/04 04:15:00;;;;;;;3.4;3.3;;;;;;;0.9;100.0;102700;;;;
2023/04/04 04:16:00;;;;;;;3.4;3.3;;;;;;;0.9;100.0;102700;;;;
2023/04/04 04:17:01;;;;;;;3.4;3.3;;;;;;;0.9;100.0;102700;;;;
2023/04/04 04:18:00;;;;;;;3.4;3.3;;;;;;;0.9;100.0;102700;;;;
2023/04/04 04:19:01;;;;;;;3.4;3.3;;;;;;;0.9;100.0;102700;;;;
2023/04/04 04:20:00;;;;;;;3.4;3.3;;;;;;;0.8;100.0;102700;;;;
2023/04/04 04:21:02;;;;;;;3.4;3.3;;;;;;;0.8;100.0;102700;;;;
2023/04/04 04:22:00;;;;;;;3.4;3.3;;;;;;;0.7;100.0;102700;;;;
2023/04/04 04:23:00;;;;;;;3.4;3.3;;;;;;;0.7;100.0;102700;;;;
2023/04/04 04:24:00;;;;;;;3.4;3.3;;;;;;;0.6;100.0;102700;;;;
2023/04/04 04:25:00;;;;;;;3.4;3.3;;;;;;;0.6;100.0;102700;;;;
2023/04/04 04:26:00;;;;;;;3.4;3.3;;;;;;;0.7;100.0;102700;;;;
2023/04/04 04:27:00;;;;;;;3.4;3.3;;;;;;;0.7;100.0;102700;;;;
2023/04/04 04:28:00;;;;;;;3.4;3.3;;;;;;;0.8;100.0;102700;;;;
2023/04/04 04:29:01;;;;;;;3.4;3.3;;;;;;;0.8;100.0;102700;;;;
2023/04/04 04:30:00;;;;;;;3.4;3.3;;;;;;;0.8;100.0;102700;;;;
2023/04/04 04:31:05;;;;;;;3.4;3.3;;;;;;;0.8;100.0;102700;;;;
2023/04/04 04:32:01;;;;;;;3.3;3.2;;;;;;;0.8;100.0;102700;;;;
2023/04/04 04:33:00;;;;;;;3.3;3.2;;;;;;;0.8;100.0;102700;;;;
2023/04/04 04:34:03;;;;;;;3.3;3.2;;;;;;;0.7;100.0;102700;;;;
2023/04/04 04:35:01;;;;;;;3.3;3.2;;;;;;;0.7;100.0;102700;;;;
2023/04/04 04:36:02;;;;;;;3.3;3.2;;;;;;;0.7;100.0;102700;;;;
2023/04/04 04:37:00;;;;;;;3.3;3.2;;;;;;;0.7;100.0;102700;;;;
2023/04/04 04:38:00;;;;;;;3.3;3.2;;;;;;;0.6;100.0;102700;;;;
2023/04/04 04:39:01;;;;;;;3.3;3.2;;;;;;;0.6;100.0;102700;;;;
2023/04/04 04:40:00;;;;;;;3.3;3.2;;;;;;;0.5;100.0;102700;;;;
2023/04/04 04:41:01;;;;;;;3.3;3.2;;;;;;;0.5;100.0;102700;;;;
2023/04/04 04:42:01;;;;;;;3.3;3.2;;;;;;;0.5;100.0;102700;;;;
2023/04/04 04:43:00;;;;;;;3.3;3.2;;;;;;;0.5;100.0;102700;;;;
2023/04/04 04:44:01;;;;;;;3.3;3.2;;;;;;;0.6;100.0;102700;;;;
2023/04/04 04:45:00;;;;;;;3.3;3.2;;;;;;;0.6;100.0;102700;;;;
2023/04/04 04:46:00;;;;;;;3.3;3.2;;;;;;;0.7;100.0;102700;;;;
2023/04/04 04:47:02;;;;;;;3.3;3.2;;;;;;;0.7;100.0;102700;;;;
2023/04/04 04:48:00;;;;;;;3.3;3.2;;;;;;;0.6;100.0;102700;;;;
2023/04/04 04:49:00;;;;;;;3.3;3.2;;;;;;;0.6;100.0;102700;;;;
2023/04/04 04:50:00;;;;;;;3.3;3.2;;;;;;;0.5;100.0;102700;;;;
2023/04/04 04:51:00;;;;;;;3.3;3.2;;;;;;;0.5;100.0;102700;;;;
2023/04/04 04:52:01;;;;;;;3.5;3.4;;;;;;;0.5;100.0;102710;;;;
2023/04/04 04:53:00;;;;;;;3.5;3.4;;;;;;;0.5;100.0;102710;;;;
2023/04/04 04:54:00;;;;;;;3.5;3.4;;;;;;;0.3;100.0;102710;;;;
2023/04/04 04:55:00;;;;;;;3.5;3.4;;;;;;;0.3;100.0;102710;;;;
2023/04/04 04:56:00;;;;;;;3.5;3.4;;;;;;;0.3;100.0;102710;;;;
2023/04/04 04:57:01;;;;;;;3.5;3.4;;;;;;;0.3;100.0;102710;;;;
2023/04/04 04:58:00;;;;;;;3.5;3.4;;;;;;;0.2;100.0;102710;;;;
2023/04/04 04:59:00;;;;;;;3.5;3.4;;;;;;;0.2;100.0;102710;;;;
2023/04/04 05:00:02;;;;;;;3.5;3.4;;;;;;;0.3;100.0;102710;;;;
2023/04/04 05:01:00;;;;;;;3.5;3.4;;;;;;;0.3;100.0;102710;;;;
2023/04/04 05:02:00;;;;;;;3.5;3.4;;;;;;;0.2;100.0;102720;;;;
2023/04/04 05:03:00;;;;;;;3.5;3.4;;;;;;;0.2;100.0;102720;;;;
2023/04/04 05:04:00;;;;;;;3.5;3.4;;;;;;;0.2;100.0;102710;;;;
2023/04/04 05:05:01;;;;;;;3.5;3.4;;;;;;;0.2;100.0;102710;;;;
2023/04/04 05:06:00;;;;;;;3.5;3.4;;;;;;;0.2;100.0;102710;;;;
2023/04/04 05:07:00;;;;;;;3.5;3.4;;;;;;;0.2;100.0;102710;;;;
2023/04/04 05:08:01;;;;;;;3.5;3.4;;;;;;;0.2;100.0;102720;;;;
2023/04/04 05:09:01;;;;;;;3.5;3.4;;;;;;;0.2;100.0;102720;;;;
2023/04/04 05:10:01;;;;;;;3.5;3.4;;;;;;;0.3;100.0;102710;;;;
2023/04/04 05:11:00;;;;;;;4.1;3.9;;;;;;;0.3;100.0;102710;;;;
2023/04/04 05:12:00;;;;;;;4.1;3.9;;;;;;;0.3;100.0;102710;;;;
2023/04/04 05:13:00;;;;;;;4.1;3.9;;;;;;;0.3;100.0;102710;;;;
2023/04/04 05:14:00;;;;;;;4.1;3.9;;;;;;;0.4;100.0;102710;;;;
2023/04/04 05:15:00;;;;;;;4.1;3.9;;;;;;;0.4;100.0;102710;;;;
2023/04/04 05:16:00;;;;;;;4.1;3.9;;;;;;;0.4;100.0;102720;;;;
2023/04/04 05:17:00;;;;;;;4.1;3.9;;;;;;;0.4;100.0;102720;;;;
2023/04/04 05:18:00;;;;;;;4.1;3.9;;;;;;;0.4;100.0;102720;;;;
2023/04/04 05:19:01;;;;;;;4.1;3.9;;;;;;;0.4;100.0;102720;;;;
2023/04/04 05:20:00;;;;;;;4.1;3.9;;;;;;;0.4;100.0;102720;;;;
2023/04/04 05:21:00;;;;;;;4.1;3.9;;;;;;;0.4;100.0;102720;;;;
2023/04/04 05:22:00;;;;;;;4.1;3.9;;;;;;;0.4;100.0;102720;;;;
2023/04/04 05:23:00;;;;;;;4.1;3.9;;;;;;;0.4;100.0;102720;;;;
2023/04/04 05:24:01;;;;;;;4.1;3.9;;;;;;;0.4;100.0;102720;;;;
2023/04/04 05:25:00;;;;;;;4.1;3.9;;;;;;;0.4;100.0;102720;;;;
2023/04/04 05:26:01;;;;;;;4.1;3.9;;;;;;;0.4;100.0;102720;;;;
2023/04/04 05:27:00;;;;;;;4.1;3.9;;;;;;;0.4;100.0;102720;;;;
2023/04/04 05:28:02;;;;;;;4.1;3.9;;;;;;;0.3;100.0;102720;;;;
2023/04/04 05:29:01;;;;;;;4.1;3.9;;;;;;;0.3;100.0;102720;;;;
2023/04/04 05:30:00;;;;;;;4.1;3.9;;;;;;;0.3;100.0;102720;;;;
2023/04/04 05:31:01;;;;;;;3.7;3.6;;;;;;;0.3;100.0;102720;;;;
2023/04/04 05:32:00;;;;;;;3.7;3.6;;;;;;;0.4;100.0;102720;;;;
2023/04/04 05:33:00;;;;;;;3.7;3.6;;;;;;;0.4;100.0;102720;;;;
2023/04/04 05:34:06;;;;;;;3.7;3.6;;;;;;;0.3;100.0;102730;;;;
2023/04/04 05:35:00;;;;;;;3.7;3.6;;;;;;;0.3;100.0;102730;;;;
2023/04/04 05:36:01;;;;;;;3.7;3.6;;;;;;;0.4;100.0;102720;;;;
2023/04/04 05:37:00;;;;;;;3.7;3.6;;;;;;;0.4;100.0;102720;;;;
2023/04/04 05:38:00;;;;;;;3.7;3.6;;;;;;;0.4;100.0;102730;;;;
2023/04/04 05:39:00;;;;;;;3.7;3.6;;;;;;;0.4;100.0;102730;;;;
2023/04/04 05:40:00;;;;;;;3.7;3.6;;;;;;;0.4;100.0;102730;;;;
2023/04/04 05:41:00;;;;;;;3.7;3.6;;;;;;;0.4;100.0;102730;;;;
2023/04/04 05:42:00;;;;;;;3.7;3.6;;;;;;;0.5;100.0;102730;;;;
2023/04/04 05:43:03;;;;;;;3.7;3.6;;;;;;;0.5;100.0;102730;;;;
2023/04/04 05:44:00;;;;;;;3.7;3.6;;;;;;;0.6;100.0;102730;;;;
2023/04/04 05:45:00;;;;;;;3.7;3.6;;;;;;;0.6;100.0;102730;;;;
2023/04/04 05:46:00;;;;;;;3.7;3.6;;;;;;;0.5;100.0;102740;;;;
2023/04/04 05:47:00;;;;;;;3.7;3.6;;;;;;;0.5;100.0;102740;;;;
2023/04/04 05:48:00;;;;;;;3.7;3.6;;;;;;;0.5;100.0;102740;;;;
2023/04/04 05:49:00;;;;;;;3.7;3.6;;;;;;;0.5;100.0;102740;;;;
2023/04/04 05:50:00;;;;;;;3.7;3.6;;;;;;;0.5;100.0;102740;;;;
2023/04/04 05:51:00;;;;;;;3.6;3.5;;;;;;;0.5;100.0;102740;;;;
2023/04/04 05:52:00;;;;;;;3.6;3.5;;;;;;;0.5;100.0;102740;;;;
2023/04/04 05:53:01;;;;;;;3.6;3.5;;;;;;;0.5;100.0;102740;;;;
2023/04/04 05:54:00;;;;;;;3.6;3.5;;;;;;;0.5;100.0;102740;;;;
2023/04/04 05:55:00;;;;;;;3.6;3.5;;;;;;;0.5;100.0;102740;;;;
2023/04/04 05:56:01;;;;;;;3.6;3.5;;;;;;;0.5;100.0;102740;;;;
2023/04/04 05:57:00;;;;;;;3.6;3.5;;;;;;;0.5;100.0;102740;;;;
2023/04/04 05:58:00;;;;;;;3.6;3.5;;;;;;;0.4;100.0;102740;;;;
2023/04/04 05:59:01;;;;;;;3.6;3.5;;;;;;;0.4;100.0;102740;;;;
2023/04/04 06:00:00;;;;;;;3.6;3.5;;;;;;;0.4;100.0;102740;;;;
2023/04/04 06:01:00;;;;;;;3.6;3.5;;;;;;;0.4;100.0;102740;;;;
2023/04/04 06:02:00;;;;;;;3.6;3.5;;;;;;;0.4;100.0;102740;;;;
2023/04/04 06:03:01;;;;;;;3.6;3.5;;;;;;;0.4;100.0;102740;;;;
2023/04/04 06:04:00;;;;;;;3.6;3.5;;;;;;;0.3;100.0;102740;;;;
2023/04/04 06:05:00;;;;;;;3.6;3.5;;;;;;;0.3;100.0;102740;;;;
2023/04/04 06:06:03;;;;;;;3.6;3.5;;;;;;;0.3;100.0;102740;;;;
2023/04/04 06:07:00;;;;;;;3.6;3.5;;;;;;;0.3;100.0;102740;;;;
2023/04/04 06:08:00;;;;;;;3.6;3.5;;;;;;;0.3;100.0;102730;;;;
2023/04/04 06:09:00;;;;;;;3.6;3.5;;;;;;;0.3;100.0;102730;;;;
2023/04/04 06:10:00;;;;;;;3.6;3.5;;;;;;;0.4;100.0;102740;;;;
2023/04/04 06:11:00;;;;;;;3.4;3.3;;;;;;;0.4;100.0;102740;;;;
2023/04/04 06:12:03;;;;;;;3.4;3.3;;;;;;;0.4;100.0;102740;;;;
2023/04/04 06:13:00;;;;;;;3.4;3.3;;;;;;;0.4;100.0;102740;;;;
2023/04/04 06:14:00;;;;;;;3.4;3.3;;;;;;;0.4;100.0;102740;;;;
2023/04/04 06:15:00;;;;;;;3.4;3.3;;;;;;;0.4;100.0;102740;;;;
2023/04/04 06:16:01;;;;;;;3.4;3.3;;;;;;;0.5;100.0;102740;;;;
2023/04/04 06:17:01;;;;;;;3.4;3.3;;;;;;;0.5;100.0;102740;;;;
2023/04/04 06:18:00;;;;;;;3.4;3.3;;;;;;;0.5;100.0;102750;;;;
2023/04/04 06:19:00;;;;;;;3.4;3.3;;;;;;;0.5;100.0;102750;;;;
2023/04/04 06:20:00;;;;;;;3.4;3.3;;;;;;;0.5;100.0;102750;;;;
2023/04/04 06:21:00;;;;;;;3.4;3.3;;;;;;;0.5;100.0;102750;;;;
2023/04/04 06:22:00;;;;;;;3.4;3.3;;;;;;;0.6;100.0;102750;;;;
2023/04/04 06:23:03;;;;;;;3.4;3.3;;;;;;;0.6;100.0;102750;;;;
2023/04/04 06:24:00;;;;;;;3.4;3.3;;;;;;;0.7;100.0;102750;;;;
2023/04/04 06:25:00;;;;;;;3.4;3.3;;;;;;;0.7;100.0;102750;;;;
2023/04/04 06:26:01;;;;;;;3.4;3.3;;;;;;;0.6;100.0;102750;;;;
2023/04/04 06:27:00;;;;;;;3.4;3.3;;;;;;;0.6;100.0;102750;;;;
2023/04/04 06:28:02;;;;;;;3.4;3.3;;;;;;;0.8;100.0;102750;;;;
2023/04/04 06:29:00;;;;;;;3.4;3.3;;;;;;;0.8;100.0;102750;;;;